createdAt,value
2023-06-12T13:15:32.432Z,6.50
2023-06-12T13:17:25.490Z,5.90
2023-06-12T13:19:21.160Z,6.70
2023-06-12T13:21:16.770Z,4.60
2023-06-12T13:23:14.173Z,6.50
2023-06-12T13:27:08.410Z,8.40
2023-06-12T13:29:02.793Z,5.60
2023-06-12T13:30:55.879Z,6.40
2023-06-12T13:32:49.341Z,5.40
2023-06-12T13:34:42.877Z,6.30
2023-06-12T13:36:35.918Z,5.60
2023-06-12T13:38:29.774Z,9.00
2023-06-12T13:40:24.758Z,19.60
2023-06-12T13:42:18.349Z,17.10
2023-06-12T13:44:12.461Z,10.20
2023-06-12T13:47:59.789Z,11.40
2023-06-12T13:49:53.940Z,10.70
2023-06-12T13:51:46.998Z,11.60
2023-06-12T13:53:41.066Z,10.90
2023-06-12T13:55:36.977Z,8.80
2023-06-12T13:57:30.235Z,6.40
2023-06-12T13:59:23.283Z,8.60
2023-06-12T14:01:16.373Z,7.40
2023-06-12T14:03:09.832Z,8.00
2023-06-12T14:05:03.603Z,8.10
2023-06-12T14:06:59.817Z,8.90
2023-06-12T14:08:55.665Z,9.50
2023-06-12T14:10:50.021Z,6.80
2023-06-12T14:12:44.733Z,7.60
2023-06-12T14:14:38.682Z,7.80
2023-06-12T14:16:32.066Z,5.90
2023-06-12T14:18:25.176Z,7.80
2023-06-12T14:20:18.312Z,8.20
2023-06-12T14:22:11.503Z,6.00
2023-06-12T14:24:05.648Z,9.40
2023-06-12T14:25:58.900Z,6.90
2023-06-12T14:27:51.948Z,8.00
2023-06-12T14:29:44.996Z,5.90
2023-06-12T14:31:38.094Z,7.60
2023-06-12T14:33:31.530Z,10.80
2023-06-12T14:35:24.760Z,7.70
2023-06-12T14:37:21.200Z,8.60
2023-06-12T14:39:14.343Z,8.20
2023-06-12T14:41:07.708Z,9.30
2023-06-12T14:43:00.686Z,6.30
2023-06-12T14:44:53.727Z,6.90
2023-06-12T14:46:46.648Z,5.30
2023-06-12T14:48:39.701Z,6.70
2023-06-12T14:50:33.567Z,8.30
2023-06-12T14:52:32.490Z,7.90
2023-06-12T14:54:26.709Z,5.30
2023-06-12T14:56:20.507Z,6.60
2023-06-12T14:58:14.119Z,8.40
2023-06-12T15:00:09.197Z,7.60
2023-06-12T15:02:02.324Z,6.30
2023-06-12T15:03:55.639Z,6.60
2023-06-12T15:05:48.854Z,6.20
2023-06-12T15:07:42.086Z,6.40
2023-06-12T15:09:35.137Z,14.40
2023-06-12T15:11:28.167Z,10.20
2023-06-12T15:13:24.824Z,5.90
2023-06-12T15:15:17.775Z,7.20
2023-06-12T15:17:15.224Z,8.90
2023-06-12T15:19:08.278Z,6.20
2023-06-12T15:21:01.430Z,6.40
2023-06-12T15:22:54.477Z,6.30
2023-06-12T15:24:47.629Z,6.70
2023-06-12T15:26:40.677Z,7.40
2023-06-12T15:28:33.879Z,6.30
2023-06-12T15:30:29.237Z,7.80
2023-06-12T15:32:22.544Z,6.80
2023-06-12T15:34:16.071Z,6.10
2023-06-12T15:36:10.124Z,6.80
2023-06-12T15:38:42.086Z,8.20
2023-06-12T15:40:35.222Z,6.70
2023-06-12T15:42:28.314Z,5.90
2023-06-12T15:44:21.474Z,7.50
2023-06-12T15:46:14.656Z,7.80
2023-06-12T15:48:07.887Z,7.20
2023-06-12T15:50:00.937Z,8.70
2023-06-12T15:51:54.060Z,8.70
2023-06-12T15:53:47.312Z,5.80
2023-06-12T15:55:47.954Z,7.10
2023-06-12T15:57:41.674Z,6.60
2023-06-12T15:59:35.990Z,6.70
2023-06-12T16:01:29.202Z,5.70
2023-06-12T16:03:22.420Z,7.30
2023-06-12T16:05:15.915Z,6.70
2023-06-12T16:07:09.240Z,7.40
2023-06-12T16:09:02.710Z,9.20
2023-06-12T16:11:06.640Z,8.70
2023-06-12T16:13:34.824Z,6.10
2023-06-12T16:16:00.269Z,10.80
2023-06-12T16:17:53.459Z,7.40
2023-06-12T16:19:46.900Z,8.30
2023-06-12T16:21:40.237Z,10.10
2023-06-12T16:23:38.805Z,5.50
2023-06-12T16:25:32.996Z,7.30
2023-06-12T16:27:26.046Z,6.70
2023-06-12T16:29:20.138Z,7.40
2023-06-12T16:31:13.461Z,6.90
2023-06-12T16:33:07.375Z,6.40
2023-06-12T16:35:01.156Z,7.60
2023-06-12T16:36:55.730Z,7.20
2023-06-12T16:38:48.896Z,7.60
2023-06-12T16:40:42.003Z,7.40
2023-06-12T16:42:35.933Z,10.90
2023-06-12T16:44:30.181Z,6.40
2023-06-12T16:46:41.022Z,5.80
2023-06-12T16:48:34.389Z,7.20
2023-06-12T16:50:27.442Z,7.90
2023-06-12T16:52:22.541Z,6.30
2023-06-12T16:54:15.830Z,9.00
2023-06-12T16:56:09.064Z,6.80
2023-06-12T16:58:05.853Z,6.50
2023-06-12T16:59:59.444Z,7.90
2023-06-12T17:01:52.534Z,8.00
2023-06-12T17:03:46.167Z,12.60
2023-06-12T17:05:39.519Z,13.80
2023-06-12T17:07:32.782Z,11.70
2023-06-12T17:09:32.703Z,9.10
2023-06-12T17:11:26.045Z,8.90
2023-06-12T17:13:19.314Z,9.10
2023-06-12T17:15:13.021Z,6.50
2023-06-12T17:17:06.457Z,7.10
2023-06-12T17:18:59.480Z,6.70
2023-06-12T17:20:52.625Z,10.20
2023-06-12T17:22:45.843Z,8.70
2023-06-12T17:24:40.263Z,8.80
2023-06-12T17:26:33.432Z,7.60
2023-06-12T17:28:26.373Z,6.70
2023-06-12T17:30:19.349Z,7.00
2023-06-12T17:32:12.622Z,6.30
2023-06-12T17:34:06.029Z,10.10
2023-06-12T17:35:59.591Z,7.60
2023-06-12T17:37:52.768Z,5.50
2023-06-12T17:39:45.970Z,6.70
2023-06-12T17:41:40.279Z,8.30
2023-06-12T17:43:33.433Z,7.60
2023-06-12T17:45:26.493Z,7.00
2023-06-12T17:47:19.746Z,8.20
2023-06-12T17:49:12.822Z,6.60
2023-06-12T17:51:06.263Z,8.20
2023-06-12T17:52:59.413Z,6.90
2023-06-12T17:54:52.458Z,7.60
2023-06-12T17:56:47.460Z,7.10
2023-06-12T17:58:42.073Z,6.40
2023-06-12T18:00:35.205Z,7.80
2023-06-12T18:02:29.231Z,7.70
2023-06-12T18:04:22.533Z,8.90
2023-06-12T18:06:15.691Z,7.20
2023-06-12T18:08:08.832Z,7.40
2023-06-12T18:10:04.213Z,9.20
2023-06-12T18:11:57.384Z,10.50
2023-06-12T18:13:53.518Z,8.90
2023-06-12T18:15:47.287Z,9.80
2023-06-12T18:17:40.483Z,8.50
2023-06-12T18:19:33.910Z,11.20
2023-06-12T18:21:27.454Z,8.90
2023-06-12T18:23:21.012Z,8.50
2023-06-12T18:25:14.282Z,8.10
2023-06-12T18:27:08.548Z,8.40
2023-06-12T18:29:02.419Z,8.30
2023-06-12T18:30:55.877Z,9.60
2023-06-12T18:32:49.050Z,8.40
2023-06-12T18:34:47.527Z,10.30
2023-06-12T18:36:40.661Z,9.60
2023-06-12T18:38:34.020Z,10.10
2023-06-12T18:40:27.487Z,9.90
2023-06-12T18:42:21.147Z,9.50
2023-06-12T18:44:16.390Z,11.60
2023-06-12T18:46:09.526Z,10.10
2023-06-12T18:48:02.502Z,10.30
2023-06-12T18:49:55.699Z,12.80
2023-06-12T18:51:49.060Z,13.70
2023-06-12T18:53:43.026Z,8.30
2023-06-12T18:55:38.181Z,14.60
2023-06-12T18:57:31.488Z,9.60
2023-06-12T18:59:26.884Z,15.00
2023-06-12T19:01:20.198Z,10.70
2023-06-12T19:03:14.291Z,13.10
2023-06-12T19:05:10.101Z,11.70
2023-06-12T19:07:08.687Z,13.50
2023-06-12T19:09:01.823Z,13.20
2023-06-12T19:11:04.051Z,13.30
2023-06-12T19:13:11.325Z,18.60
2023-06-12T19:15:05.475Z,15.70
2023-06-12T19:16:59.438Z,18.20
2023-06-12T19:18:53.552Z,20.00
2023-06-12T19:20:46.595Z,16.70
2023-06-12T19:22:39.752Z,21.20
2023-06-12T19:24:33.163Z,14.10
2023-06-12T19:26:26.667Z,16.20
2023-06-12T19:28:19.818Z,18.40
2023-06-12T19:30:15.020Z,19.40
2023-06-12T19:32:08.670Z,17.10
2023-06-12T19:34:03.179Z,22.40
2023-06-12T19:35:56.428Z,20.00
2023-06-12T19:37:49.479Z,18.00
2023-06-12T19:39:43.351Z,17.90
2023-06-12T19:41:36.507Z,17.00
2023-06-12T19:43:30.684Z,22.00
2023-06-12T19:45:25.978Z,23.60
2023-06-12T19:47:19.242Z,19.20
2023-06-12T19:49:12.396Z,17.10
2023-06-12T19:51:06.272Z,18.40
2023-06-12T19:53:01.180Z,18.20
2023-06-12T19:54:54.419Z,17.00
2023-06-12T19:56:48.388Z,17.00
2023-06-12T19:58:41.332Z,14.80
2023-06-12T20:00:35.334Z,15.70
2023-06-12T20:02:29.004Z,23.30
2023-06-12T20:04:25.192Z,15.20
2023-06-12T20:06:18.405Z,20.50
2023-06-12T20:08:11.844Z,14.50
2023-06-12T20:10:05.708Z,17.30
2023-06-12T20:11:58.934Z,15.30
2023-06-12T20:13:55.051Z,13.60
2023-06-12T20:15:48.286Z,16.10
2023-06-12T20:17:41.554Z,11.80
2023-06-12T20:19:35.744Z,13.70
2023-06-12T20:21:28.796Z,14.10
2023-06-12T20:23:22.234Z,16.00
2023-06-12T20:25:15.928Z,15.80
2023-06-12T20:27:10.237Z,18.10
2023-06-12T20:29:03.347Z,18.50
2023-06-12T20:30:56.302Z,15.50
2023-06-12T20:32:49.543Z,15.40
2023-06-12T20:34:43.316Z,17.90
2023-06-12T20:36:38.650Z,16.00
2023-06-12T20:38:31.850Z,15.00
2023-06-12T20:40:26.615Z,11.70
2023-06-12T20:42:20.854Z,15.10
2023-06-12T20:44:14.304Z,13.20
2023-06-12T20:46:07.570Z,11.40
2023-06-12T20:48:01.184Z,11.70
2023-06-12T20:49:54.523Z,11.50
2023-06-12T20:51:47.536Z,12.40
2023-06-12T20:53:40.733Z,10.10
2023-06-12T20:55:33.749Z,10.00
2023-06-12T20:57:27.033Z,12.30
2023-06-12T20:59:20.245Z,11.90
2023-06-12T21:01:13.625Z,10.60
2023-06-12T21:03:07.039Z,12.90
2023-06-12T21:05:00.328Z,10.70
2023-06-12T21:06:54.398Z,9.30
2023-06-12T21:08:58.745Z,9.20
2023-06-12T21:10:52.379Z,10.20
2023-06-12T21:12:45.325Z,10.50
2023-06-12T21:14:40.536Z,20.30
2023-06-12T21:16:36.920Z,12.90
2023-06-12T21:18:30.036Z,11.70
2023-06-12T21:20:24.339Z,11.40
2023-06-12T21:22:44.075Z,9.90
2023-06-12T21:24:37.778Z,9.30
2023-06-12T21:26:31.704Z,10.10
2023-06-12T21:28:26.672Z,10.00
2023-06-12T21:30:20.670Z,9.70
2023-06-12T21:32:13.955Z,10.50
2023-06-12T21:34:08.211Z,11.10
2023-06-12T21:36:01.254Z,11.60
2023-06-12T21:37:54.513Z,8.80
2023-06-12T21:39:47.669Z,10.90
2023-06-12T21:41:42.493Z,8.60
2023-06-12T21:43:36.403Z,9.20
2023-06-12T21:45:31.526Z,10.30
2023-06-12T21:47:24.910Z,8.40
2023-06-12T21:49:17.942Z,10.50
2023-06-12T21:51:11.193Z,9.20
2023-06-12T21:53:04.620Z,10.60
2023-06-12T21:54:57.807Z,12.10
2023-06-12T21:56:51.878Z,9.90
2023-06-12T21:58:45.037Z,7.20
2023-06-12T22:00:38.077Z,7.90
2023-06-12T22:02:31.083Z,8.60
2023-06-12T22:04:24.463Z,12.10
2023-06-12T22:06:17.749Z,8.90
2023-06-12T22:08:10.998Z,7.80
2023-06-12T22:10:05.282Z,9.70
2023-06-12T22:11:58.326Z,10.00
2023-06-12T22:13:51.377Z,9.30
2023-06-12T22:15:44.531Z,6.80
2023-06-12T22:17:38.839Z,8.80
2023-06-12T22:19:32.150Z,8.50
2023-06-12T22:21:25.421Z,10.70
2023-06-12T22:23:18.684Z,9.50
2023-06-12T22:25:11.961Z,10.00
2023-06-12T22:27:06.725Z,7.10
2023-06-12T22:28:59.778Z,7.00
2023-06-12T22:31:02.562Z,7.80
2023-06-12T22:32:57.297Z,7.00
2023-06-12T22:34:51.828Z,8.50
2023-06-12T22:36:44.877Z,7.80
2023-06-12T22:38:37.832Z,8.20
2023-06-12T22:40:30.777Z,9.00
2023-06-12T22:42:25.811Z,7.90
2023-06-12T22:44:18.922Z,6.50
2023-06-12T22:46:12.236Z,9.30
2023-06-12T22:48:09.682Z,7.10
2023-06-12T22:50:04.153Z,7.80
2023-06-12T22:52:05.261Z,9.60
2023-06-12T22:53:58.305Z,8.00
2023-06-12T22:55:51.353Z,7.40
2023-06-12T22:57:44.307Z,9.20
2023-06-12T22:59:37.879Z,9.30
2023-06-12T23:01:32.041Z,9.20
2023-06-12T23:03:24.999Z,6.60
2023-06-12T23:05:18.477Z,7.20
2023-06-12T23:07:12.092Z,9.70
2023-06-12T23:09:05.479Z,8.30
2023-06-12T23:11:02.045Z,8.40
2023-06-12T23:12:57.251Z,8.60
2023-06-12T23:14:50.361Z,7.10
2023-06-12T23:16:44.739Z,9.10
2023-06-12T23:18:39.540Z,8.30
2023-06-12T23:20:33.042Z,11.50
2023-06-12T23:22:30.584Z,10.00
2023-06-12T23:24:27.362Z,7.90
2023-06-12T23:26:24.969Z,8.30
2023-06-12T23:28:18.319Z,8.70
2023-06-12T23:30:12.344Z,8.20
2023-06-12T23:32:06.249Z,8.10
2023-06-12T23:33:59.249Z,8.00
2023-06-12T23:35:53.081Z,9.20
2023-06-12T23:37:46.530Z,7.10
2023-06-12T23:39:39.887Z,8.70
2023-06-12T23:41:32.831Z,9.20
2023-06-12T23:43:26.093Z,9.20
2023-06-12T23:45:19.145Z,8.90
2023-06-12T23:47:12.121Z,8.40
2023-06-12T23:49:05.240Z,8.30
2023-06-12T23:50:58.198Z,9.70
2023-06-12T23:52:51.351Z,10.90
2023-06-12T23:54:44.595Z,9.00
2023-06-12T23:56:38.058Z,12.50
2023-06-12T23:58:31.629Z,10.90
